Time;durP1;ratioP1;P1;durP2;ratioP2;P2;SDS_P1;SDS_P2;PMS_P1;PMS_P2;Temp;Humidity;BMP_temperature;BMP_pressure;BME280_temperature;BME280_humidity;BME280_pressure;Samples;Min_cycle;Max_cycle;Signal;HPM_P1;HPM_P2
2022/06/09 00:00:18;;;;;;;9.45;2.00;;;;;;;-144.94;75.32;76040.16;5016641;28;20079;-79
2022/06/09 00:02:45;;;;;;;;;;;;;;;-144.94;75.71;76044.28;4999561;28;20540;-80
2022/06/09 00:05:12;;;;;;;4.65;2.00;;;;;;;-144.94;75.49;76046.34;5016893;28;19920;-80
2022/06/09 00:07:37;;;;;;;4.65;1.92;;;;;;;-144.94;74.88;76048.41;5016683;28;20045;-80
2022/06/09 00:10:08;;;;;;;7.95;2.92;;;;;;;-144.94;74.87;76052.50;5016499;28;20392;-80
2022/06/09 00:12:34;;;;;;;9.63;3.80;;;;;;;-144.94;76.25;76077.22;5016521;28;20464;-79
2022/06/09 00:15:01;;;;;;;;;;;;;;;-144.94;75.50;76068.97;5017078;28;20030;-80
2022/06/09 00:17:26;;;;;;;6.87;2.57;;;;;;;-144.94;75.79;76071.03;5016700;28;19936;-79
2022/06/09 00:20:00;;;;;;;;;;;;;;;-144.94;75.27;76060.75;5016693;28;20464;-80
2022/06/09 00:22:26;;;;;;;7.53;2.13;;;;;;;-144.94;75.37;76064.88;5016721;28;20379;-80
2022/06/09 00:24:51;;;;;;;5.63;2.17;;;;;;;-144.94;75.04;76068.97;5016370;28;20026;-79
2022/06/09 00:27:16;;;;;;;;;;;;;;;-144.94;75.28;76068.97;5016500;28;20030;-80
2022/06/09 00:29:42;;;;;;;5.07;1.87;;;;;;;-144.94;75.11;76068.97;5016346;28;19918;-80
2022/06/09 00:32:08;;;;;;;7.28;1.73;;;;;;;-144.94;74.53;76056.63;5016676;28;20299;-80
2022/06/09 00:34:33;;;;;;;6.93;2.13;;;;;;;-144.94;74.52;76052.50;5016081;28;20036;-80
2022/06/09 00:36:59;;;;;;;7.93;2.03;;;;;;;-144.94;74.43;76058.69;5016081;28;20034;-80
2022/06/09 00:39:24;;;;;;;;;;;;;;;-144.94;74.01;76052.50;4998594;28;20365;-80
2022/06/09 00:41:49;;;;;;;4.03;1.77;;;;;;;-144.94;74.43;76064.88;5016182;28;19910;-80
2022/06/09 00:44:21;;;;;;;5.07;1.83;;;;;;;-144.94;74.72;76077.22;5015776;28;20264;-80
2022/06/09 00:46:56;;;;;;;5.88;1.80;;;;;;;-144.94;74.55;76083.38;5015779;28;20034;-80
2022/06/09 00:49:49;;;;;;;4.47;1.63;;;;;;;-144.94;74.47;76073.09;4998220;28;20424;-80
2022/06/09 00:52:18;;;;;;;6.20;2.28;;;;;;;-144.94;73.95;76077.22;5015745;28;20097;-80
2022/06/09 00:54:47;;;;;;;5.70;1.70;;;;;;;-144.94;74.03;76089.56;5015741;28;20536;-80
2022/06/09 00:57:19;;;;;;;5.05;1.60;;;;;;;-144.94;73.39;76077.22;5015886;28;20076;-80
2022/06/09 00:59:48;;;;;;;6.32;1.60;;;;;;;-144.94;73.32;76079.28;5015852;28;20068;-80
2022/06/09 01:04:52;;;;;;;5.55;1.85;;;;;;;-144.94;72.24;76060.75;5268670;23;20094;-81
2022/06/09 01:07:23;;;;;;;4.00;1.40;;;;;;;-144.94;72.53;76068.97;5076579;28;20082;-80
2022/06/09 01:09:48;;;;;;;3.20;1.17;;;;;;;-144.94;72.38;76073.09;5075649;28;20500;-81
2022/06/09 01:12:36;;;;;;;2.78;1.63;;;;;;;-144.94;72.22;76079.28;5075179;28;20024;-81
2022/06/09 01:15:23;;;;;;;3.40;1.48;;;;;;;-144.94;72.19;76079.28;5057070;28;20087;-81
2022/06/09 01:18:01;;;;;;;4.72;1.48;;;;;;;-144.94;71.87;76066.91;5056984;28;20052;-83
2022/06/09 01:20:52;;;;;;;7.80;1.88;;;;;;;-144.94;71.79;76068.97;5074789;28;20032;-81
2022/06/09 01:23:24;;;;;;;3.47;1.42;;;;;;;-144.94;71.86;76073.09;5061120;28;20036;-81
2022/06/09 01:25:58;;;;;;;3.10;1.17;;;;;;;-144.94;71.53;76077.22;5074865;28;20033;-81
2022/06/09 01:28:29;;;;;;;5.50;1.30;;;;;;;-144.94;71.65;76077.22;5074510;28;20492;-81
2022/06/09 01:31:08;;;;;;;2.83;1.00;;;;;;;-144.94;71.74;76085.44;5074786;28;20033;-81
2022/06/09 01:33:44;;;;;;;4.32;1.73;;;;;;;-144.94;71.40;76077.22;5074626;28;20032;-81
2022/06/09 01:36:25;;;;;;;5.22;1.40;;;;;;;-144.94;71.03;76075.16;5074414;28;20024;-81
2022/06/09 01:38:53;;;;;;;3.83;1.30;;;;;;;-144.94;71.11;76079.28;5074349;28;20475;-81
2022/06/09 01:41:20;;;;;;;4.35;1.20;;;;;;;-144.94;71.14;76081.34;5074492;28;20032;-82
2022/06/09 01:43:48;;;;;;;4.10;1.15;;;;;;;-144.94;70.85;76091.63;5074283;28;20040;-81
2022/06/09 01:46:35;;;;;;;6.18;1.85;;;;;;;-144.94;70.87;76089.56;5074542;28;20036;-81
2022/06/09 01:49:24;;;;;;;5.63;1.23;;;;;;;-144.94;71.29;76093.69;5074341;28;20028;-81
2022/06/09 01:51:52;;;;;;;4.60;1.42;;;;;;;-144.94;71.22;76095.75;5074288;28;20462;-82
2022/06/09 01:54:25;;;;;;;9.27;1.45;;;;;;;-144.94;71.44;76116.31;5074437;28;20032;-82
2022/06/09 01:56:55;;;;;;;6.40;1.17;;;;;;;-144.94;71.28;76099.84;5074087;28;20031;-83
2022/06/09 01:59:29;;;;;;;3.17;1.65;;;;;;;-144.94;70.94;76110.16;5074274;28;20320;-84
2022/06/09 02:01:59;;;;;;;4.47;1.60;;;;;;;-144.94;70.34;76101.91;5074232;28;20056;-83
2022/06/09 02:04:34;;;;;;;4.65;1.70;;;;;;;-144.94;70.41;76114.28;5060174;28;20048;-81
2022/06/09 02:07:05;;;;;;;4.43;1.10;;;;;;;-144.94;70.50;76116.31;5054074;28;20035;-83
2022/06/09 02:09:33;;;;;;;4.30;1.20;;;;;;;-144.94;70.75;76112.22;5053994;28;20033;-83
2022/06/09 02:12:05;;;;;;;6.40;1.25;;;;;;;-144.94;70.30;76103.97;5053941;28;20036;-82
2022/06/09 02:14:32;;;;;;;5.50;1.40;;;;;;;-144.94;70.17;76106.03;5054033;28;20033;-83
2022/06/09 02:16:58;;;;;;;3.97;1.27;;;;;;;-144.94;70.63;76126.63;5036153;28;20375;-82
2022/06/09 02:19:24;;;;;;;7.63;1.20;;;;;;;-144.94;70.42;76116.31;5036066;28;20029;-84
2022/06/09 02:21:51;;;;;;;5.68;1.58;;;;;;;-144.94;70.40;76114.28;5054200;28;20033;-83
2022/06/09 02:24:16;;;;;;;5.97;1.50;;;;;;;-144.94;70.13;76118.38;5035910;28;20036;-83
2022/06/09 02:26:41;;;;;;;5.97;1.00;;;;;;;-144.94;70.28;76130.72;5053900;28;20327;-83
2022/06/09 02:29:07;;;;;;;3.85;1.30;;;;;;;-144.94;70.35;76130.72;5053529;28;20044;-82
2022/06/09 02:31:32;;;;;;;5.97;1.42;;;;;;;-144.94;70.01;76132.78;5053411;28;20041;-83
2022/06/09 02:33:57;;;;;;;;;;;;;;;-144.94;70.50;76147.19;5054072;28;20052;-83
2022/06/09 02:36:23;;;;;;;5.40;1.77;;;;;;;-144.94;70.37;76153.38;5053627;28;19913;-83
2022/06/09 02:38:48;;;;;;;;;;;;;;;-144.94;70.53;76155.44;5036268;28;20102;-83
2022/06/09 02:41:14;;;;;;;3.17;1.02;;;;;;;-144.94;70.63;76165.72;5053542;28;19909;-82
2022/06/09 02:43:41;;;;;;;5.38;1.30;;;;;;;-144.94;70.76;76167.78;5053761;28;20051;-83
2022/06/09 02:46:06;;;;;;;6.47;1.20;;;;;;;-144.94;70.16;76159.56;5053346;28;20037;-83
2022/06/09 02:48:32;;;;;;;6.50;2.65;;;;;;;-144.94;70.63;76171.91;5053434;28;20082;-82
2022/06/09 02:50:57;;;;;;;;;;;;;;;-144.94;70.75;76173.97;5053748;28;20033;-83
2022/06/09 02:53:23;;;;;;;3.10;1.50;;;;;;;-144.94;70.41;76165.72;5053386;28;19915;-82
2022/06/09 02:55:49;;;;;;;13.43;1.90;;;;;;;-144.94;70.51;76178.09;5038374;28;20288;-87
2022/06/09 02:58:15;;;;;;;6.60;1.95;;;;;;;-144.94;70.63;76178.09;5056634;28;20025;-85
2022/06/09 03:00:41;;;;;;;3.80;1.23;;;;;;;-144.94;70.97;76188.38;5055039;28;20241;-86
2022/06/09 03:03:07;;;;;;;;;;;;;;;-144.94;70.97;76198.66;5056473;28;20137;-86
2022/06/09 03:05:35;;;;;;;3.63;1.70;;;;;;;-144.94;70.86;76200.72;5041784;28;20063;-86
2022/06/09 03:08:02;;;;;;;4.25;1.30;;;;;;;-144.94;70.81;76190.44;5059672;28;20036;-88
2022/06/09 03:10:27;;;;;;;5.20;1.48;;;;;;;-144.94;71.09;76196.63;5040997;28;20382;-84
2022/06/09 03:12:53;;;;;;;6.45;1.30;;;;;;;-144.94;71.23;76202.78;5053047;28;20091;-84
2022/06/09 03:15:22;;;;;;;4.70;1.63;;;;;;;-144.94;71.17;76204.84;5035189;28;20060;-84
2022/06/09 03:17:48;;;;;;;6.70;1.50;;;;;;;-144.94;71.49;76208.97;5055890;28;20463;-84
2022/06/09 03:20:18;;;;;;;3.85;1.35;;;;;;;-144.94;71.22;76198.66;5039367;28;20036;-84
2022/06/09 03:22:44;;;;;;;5.97;2.05;;;;;;;-144.94;70.79;76196.63;5056872;28;20031;-84
2022/06/09 03:25:09;;;;;;;4.72;1.52;;;;;;;-144.94;70.81;76196.63;5056929;28;20033;-84
2022/06/09 03:27:34;;;;;;;5.55;1.35;;;;;;;-144.94;70.93;76206.91;5057343;28;20145;-85
2022/06/09 03:30:01;;;;;;;4.60;1.35;;;;;;;-144.94;70.86;76200.72;5056785;28;20032;-84
2022/06/09 03:32:27;;;;;;;2.90;1.05;;;;;;;-144.94;71.00;76202.78;5039203;28;20429;-83
2022/06/09 03:34:52;;;;;;;7.50;1.70;;;;;;;-144.94;71.10;76198.66;5056426;28;20461;-83
2022/06/09 03:37:18;;;;;;;8.85;2.30;;;;;;;-144.94;70.83;76204.84;5038873;28;20053;-83
2022/06/09 03:39:43;;;;;;;;;;;;;;;-144.94;71.22;76213.09;5056889;28;20029;-83
2022/06/09 03:42:08;;;;;;;8.50;1.88;;;;;;;-144.94;70.81;76208.97;5056616;28;20347;-83
2022/06/09 03:44:34;;;;;;;5.40;1.45;;;;;;;-144.94;70.81;76200.72;5056978;28;20435;-83
2022/06/09 03:46:59;;;;;;;7.67;1.90;;;;;;;-144.94;70.87;76204.84;5056620;28;20036;-83
2022/06/09 03:49:24;;;;;;;7.38;1.90;;;;;;;-144.94;70.96;76206.91;5056335;28;20262;-82
2022/06/09 03:51:49;;;;;;;;;;;;;;;-144.94;70.92;76208.97;5056850;28;20033;-83
2022/06/09 03:54:15;;;;;;;10.20;2.83;;;;;;;-144.94;71.15;76206.91;5056628;28;20313;-83
2022/06/09 03:56:41;;;;;;;;;;;;;;;-144.94;71.08;76206.91;5056766;28;20034;-84
2022/06/09 03:59:06;;;;;;;6.82;2.15;;;;;;;-144.94;71.38;76217.19;5056443;28;19916;-83
2022/06/09 04:01:32;;;;;;;;;;;;;;;-144.94;71.00;76208.97;5056753;28;20117;-84
2022/06/09 04:03:57;;;;;;;9.35;3.05;;;;;;;-144.94;71.21;76206.91;5056104;28;19923;-83
2022/06/09 04:06:25;;;;;;;7.95;2.75;;;;;;;-144.94;71.38;76227.50;5055997;28;20460;-83
2022/06/09 04:08:51;;;;;;;8.25;3.17;;;;;;;-144.94;71.33;76213.09;5038372;28;20112;-83
2022/06/09 04:11:19;;;;;;;8.77;3.50;;;;;;;-144.94;71.52;76227.50;5038299;28;20121;-83
2022/06/09 04:13:44;;;;;;;7.43;2.67;;;;;;;-144.94;71.96;76250.13;5055790;28;20033;-83
2022/06/09 04:16:33;;;;;;;9.95;3.42;;;;;;;-144.94;72.18;76239.84;5055990;28;20111;-83
2022/06/09 04:19:02;;;;;;;10.25;3.13;;;;;;;-144.94;72.14;76237.78;5055789;28;20444;-82
2022/06/09 04:21:29;;;;;;;6.70;2.92;;;;;;;-144.94;72.07;76252.19;5055592;28;20064;-82
2022/06/09 04:23:55;;;;;;;10.18;2.70;;;;;;;-144.94;71.95;76246.00;5055414;28;20116;-82
2022/06/09 04:26:23;;;;;;;6.30;2.58;;;;;;;-144.94;71.88;76233.66;5055502;28;20094;-83
2022/06/09 04:28:49;;;;;;;9.48;3.75;;;;;;;-144.94;72.06;76254.25;5037339;28;20037;-82
2022/06/09 04:31:15;;;;;;;8.52;2.88;;;;;;;-144.94;71.63;76233.66;5055279;28;20211;-82
2022/06/09 04:33:41;;;;;;;11.15;3.30;;;;;;;-144.94;71.77;76250.13;5055809;28;20041;-83
2022/06/09 04:36:09;;;;;;;8.25;3.45;;;;;;;-144.94;71.81;76246.00;5055450;28;20028;-81
2022/06/09 04:38:36;;;;;;;9.60;4.03;;;;;;;-144.94;71.97;76248.06;5055412;28;20386;-82
2022/06/09 04:41:02;;;;;;;6.57;3.30;;;;;;;-144.94;72.24;76256.31;5055379;28;20071;-82
2022/06/09 04:43:28;;;;;;;7.60;3.03;;;;;;;-144.94;72.50;76260.44;5055109;28;20132;-82
2022/06/09 04:45:53;;;;;;;11.35;3.83;;;;;;;-144.94;72.28;76254.25;5055273;28;20454;-82
2022/06/09 04:48:18;;;;;;;8.93;3.53;;;;;;;-144.94;72.05;76252.19;5055037;28;20092;-82
2022/06/09 04:50:44;;;;;;;10.77;3.78;;;;;;;-144.94;72.18;76246.00;5055294;28;20025;-81
2022/06/09 04:53:10;;;;;;;11.52;3.70;;;;;;;-144.94;72.05;76262.47;5055138;28;20379;-82
2022/06/09 04:55:36;;;;;;;;;;;;;;;-144.94;72.28;76262.47;5055334;28;20025;-82
2022/06/09 04:58:01;;;;;;;15.20;4.95;;;;;;;-144.94;71.88;76250.13;5056614;28;19924;-82
2022/06/09 05:00:27;;;;;;;13.05;4.40;;;;;;;-144.94;72.33;76256.31;5055021;28;20021;-83
2022/06/09 05:02:54;;;;;;;8.63;3.75;;;;;;;-144.94;71.79;76258.38;5036699;28;20041;-82
2022/06/09 05:05:22;;;;;;;16.48;4.80;;;;;;;-144.94;71.56;76241.91;5054919;28;20040;-83
2022/06/09 05:07:48;;;;;;;14.48;5.40;;;;;;;-144.94;71.49;76243.97;5054540;28;20040;-82
2022/06/09 05:10:13;;;;;;;11.10;3.83;;;;;;;-144.94;71.13;76248.06;5036461;28;20037;-82
2022/06/09 05:12:38;;;;;;;;;;;;;;;-144.94;71.81;76260.44;5037036;28;20132;-82
2022/06/09 05:15:05;;;;;;;8.57;4.30;;;;;;;-144.94;71.70;76250.13;5054116;28;19916;-82
2022/06/09 05:17:30;;;;;;;11.88;3.63;;;;;;;-144.94;71.57;76258.38;5054157;28;20436;-82
2022/06/09 05:19:56;;;;;;;7.10;3.67;;;;;;;-144.94;71.81;76252.19;5054247;28;20108;-82
2022/06/09 05:22:21;;;;;;;;;;;;;;;-144.94;71.86;76262.47;5054647;28;20116;-83
2022/06/09 05:24:46;;;;;;;11.93;3.80;;;;;;;-144.94;72.08;76258.38;5054219;28;19914;-82
2022/06/09 05:27:14;;;;;;;;;;;;;;;-144.94;71.94;76258.38;5036739;28;20029;-82
2022/06/09 05:29:39;;;;;;;11.65;4.60;;;;;;;-144.94;71.65;76254.25;5054373;28;19919;-82
2022/06/09 05:32:05;;;;;;;;;;;;;;;-144.94;71.69;76250.13;5036965;28;20036;-82
2022/06/09 05:34:31;;;;;;;8.82;4.28;;;;;;;-144.94;71.44;76248.06;5053953;28;19931;-82
2022/06/09 05:36:57;;;;;;;7.82;3.70;;;;;;;-144.94;71.50;76241.91;5054112;28;20453;-81
2022/06/09 05:45:13;;;;;;;7.78;4.05;;;;;;;-144.94;70.76;76233.66;4972642;28;20090;-83
2022/06/09 05:47:38;;;;;;;10.15;4.72;;;;;;;-144.94;70.40;76231.59;5023337;28;20390;-84
2022/06/09 05:50:04;;;;;;;;;;;;;;;-144.94;69.97;76237.78;5054334;28;20037;-83
2022/06/09 05:52:30;;;;;;;12.43;5.70;;;;;;;-144.94;70.40;76252.19;5035621;28;20037;-83
2022/06/09 05:54:56;;;;;;;13.55;4.72;;;;;;;-144.94;70.23;76248.06;5053384;28;20056;-82
2022/06/09 05:57:22;;;;;;;14.25;5.68;;;;;;;-144.94;70.24;76241.91;5036078;28;20040;-82
2022/06/09 05:59:49;;;;;;;9.82;5.40;;;;;;;-144.94;70.58;76250.13;5054084;28;20029;-82
2022/06/09 06:02:15;;;;;;;14.27;5.20;;;;;;;-144.94;70.44;76239.84;5053608;28;20033;-82
2022/06/09 06:04:41;;;;;;;11.43;4.90;;;;;;;-144.94;70.28;76243.97;5053627;28;20136;-82
2022/06/09 06:07:07;;;;;;;11.00;5.88;;;;;;;-144.94;70.43;76246.00;5053487;28;20032;-82
2022/06/09 06:09:32;;;;;;;;;;;;;;;-144.94;70.42;76250.13;5053908;28;20033;-83
2022/06/09 06:11:57;;;;;;;13.73;5.22;;;;;;;-144.94;69.63;76233.66;5053709;28;20231;-83
2022/06/09 06:14:23;;;;;;;12.82;5.90;;;;;;;-144.94;69.73;76233.66;5053342;28;20356;-82
2022/06/09 06:16:48;;;;;;;;;;;;;;;-144.94;69.71;76237.78;5054300;28;20029;-83
2022/06/09 06:19:17;;;;;;;13.13;5.28;;;;;;;-144.94;69.82;76248.06;5053604;28;19935;-82
2022/06/09 06:21:44;;;;;;;11.10;5.72;;;;;;;-144.94;69.83;76241.91;5035326;28;20044;-82
2022/06/09 06:24:11;;;;;;;14.32;5.95;;;;;;;-144.94;69.88;76248.06;5053700;28;20033;-83
2022/06/09 06:26:37;;;;;;;14.35;5.90;;;;;;;-144.94;69.92;76233.66;5053355;28;20095;-83
2022/06/09 06:29:05;;;;;;;11.93;5.15;;;;;;;-144.94;69.85;76237.78;5053811;28;20064;-83
2022/06/09 06:31:31;;;;;;;14.88;6.38;;;;;;;-144.94;69.25;76235.72;5057721;28;20095;-83
2022/06/09 06:33:56;;;;;;;;;;;;;;;-144.94;69.21;76237.78;5063353;28;20036;-83
2022/06/09 06:36:21;;;;;;;13.13;6.07;;;;;;;-144.94;69.11;76231.59;5062413;28;19932;-82
2022/06/09 06:38:49;;;;;;;;;;;;;;;-144.94;69.08;76237.78;5063485;28;20275;-82
2022/06/09 06:41:15;;;;;;;12.32;5.65;;;;;;;-144.94;69.56;76252.19;5062656;28;20425;-82
2022/06/09 06:43:40;;;;;;;;;;;;;;;-144.94;69.50;76266.59;5062781;28;20029;-84
2022/06/09 06:46:06;;;;;;;14.45;6.13;;;;;;;-144.94;69.25;76264.53;5062939;28;19909;-83
2022/06/09 06:48:32;;;;;;;;;;;;;;;-144.94;69.61;76264.53;5055822;28;20087;-83
2022/06/09 06:50:58;;;;;;;15.82;7.00;;;;;;;-144.94;69.31;76262.47;5053658;28;19908;-83
2022/06/09 06:53:24;;;;;;;12.18;6.90;;;;;;;-144.94;69.05;76266.59;5052793;28;20120;-83
2022/06/09 06:55:50;;;;;;;13.95;5.60;;;;;;;-144.94;68.94;76258.38;5052565;28;20033;-83
2022/06/09 06:58:16;;;;;;;10.88;6.05;;;;;;;-144.94;68.52;76248.06;5052291;28;20036;-82
2022/06/09 07:00:42;;;;;;;13.88;6.55;;;;;;;-144.94;68.23;76256.31;5052535;28;20340;-82
2022/06/09 07:03:10;;;;;;;11.60;5.40;;;;;;;-144.94;68.22;76266.59;5052388;28;20108;-82
2022/06/09 07:05:36;;;;;;;15.80;5.82;;;;;;;-144.94;68.45;76264.53;5052366;28;20419;-82
2022/06/09 07:08:03;;;;;;;12.77;6.07;;;;;;;-144.94;68.29;76258.38;5052391;28;20032;-82
2022/06/09 07:10:31;;;;;;;10.65;6.53;;;;;;;-144.94;68.13;76262.47;5052564;28;20032;-82
2022/06/09 07:12:57;;;;;;;10.45;6.40;;;;;;;-144.94;68.30;76268.66;5034401;28;20106;-82
2022/06/09 07:15:22;;;;;;;13.45;6.10;;;;;;;-144.94;68.34;76272.78;5052031;28;20058;-82
2022/06/09 07:17:48;;;;;;;;;;;;;;;-144.94;68.21;76278.97;5034696;28;20025;-82
2022/06/09 07:20:14;;;;;;;17.20;6.72;;;;;;;-144.94;67.86;76278.97;5051776;28;20370;-81
2022/06/09 07:22:39;;;;;;;;;;;;;;;-144.94;68.26;76283.06;5051884;28;20032;-81
2022/06/09 07:25:05;;;;;;;11.97;5.47;;;;;;;-144.94;68.18;76293.38;5051679;28;19963;-81
2022/06/09 07:27:30;;;;;;;;;;;;;;;-144.94;68.18;76289.25;5052534;28;20048;-82
2022/06/09 07:29:56;;;;;;;12.67;5.77;;;;;;;-144.94;68.50;76295.44;5052096;28;19915;-82
2022/06/09 07:32:22;;;;;;;;;;;;;;;-144.94;68.73;76291.31;5034932;28;20326;-82
2022/06/09 07:34:47;;;;;;;16.60;6.80;;;;;;;-144.94;68.18;76276.91;5053425;28;19974;-83
2022/06/09 07:37:12;;;;;;;;;;;;;;;-144.94;68.60;76287.19;5053869;28;20056;-83
2022/06/09 07:39:38;;;;;;;12.68;6.38;;;;;;;-144.94;68.69;76287.19;5052406;28;19966;-83
2022/06/09 07:42:04;;;;;;;;;;;;;;;-144.94;69.30;76309.84;5054004;28;20035;-83
2022/06/09 07:44:29;;;;;;;14.20;6.43;;;;;;;-144.94;69.77;76320.13;5053461;28;20370;-83
2022/06/09 07:46:54;;;;;;;;;;;;;;;-144.94;70.01;76318.06;5053524;28;20044;-83
2022/06/09 07:49:20;;;;;;;13.40;6.13;;;;;;;-144.94;70.41;76313.94;5034133;28;19913;-83
2022/06/09 07:51:45;;;;;;;;;;;;;;;-144.94;69.87;76303.66;5052719;28;20032;-83
2022/06/09 07:54:11;;;;;;;12.80;5.95;;;;;;;-144.94;70.01;76305.72;5052954;28;19939;-83
2022/06/09 07:56:36;;;;;;;;;;;;;;;-144.94;70.43;76299.53;5053491;28;20037;-83
2022/06/09 07:59:06;;;;;;;14.68;6.43;;;;;;;-144.94;70.33;76295.44;5052803;28;19917;-82
2022/06/09 08:01:32;;;;;;;14.38;7.57;;;;;;;-144.94;70.07;76301.59;5052343;28;20044;-83
2022/06/09 08:03:57;;;;;;;10.80;5.75;;;;;;;-144.94;70.12;76289.25;5037127;28;20049;-82
2022/06/09 08:06:23;;;;;;;;;;;;;;;-144.94;70.30;76291.31;5056325;28;20024;-82
2022/06/09 08:08:50;;;;;;;15.23;6.22;;;;;;;-144.94;70.30;76287.19;5055339;28;19908;-82
2022/06/09 08:11:16;;;;;;;17.50;8.63;;;;;;;-144.94;69.64;76289.25;5055648;28;20029;-82
2022/06/09 08:13:42;;;;;;;15.70;7.03;;;;;;;-144.94;70.07;76276.91;5056483;28;20097;-82
2022/06/09 08:16:07;;;;;;;;;;;;;;;-144.94;69.59;76287.19;5056019;28;20131;-81
2022/06/09 08:18:33;;;;;;;15.15;6.55;;;;;;;-144.94;68.63;76258.38;5055497;28;19913;-82
2022/06/09 08:20:58;;;;;;;;;;;;;;;-144.94;68.76;76250.13;5038561;28;20033;-82
2022/06/09 08:23:25;;;;;;;16.67;6.65;;;;;;;-144.94;68.25;76233.66;5038322;28;20346;-81
2022/06/09 08:25:54;;;;;;;13.52;6.47;;;;;;;-144.94;67.34;76215.13;5055162;28;20061;-81
2022/06/09 08:28:20;;;;;;;15.10;6.90;;;;;;;-144.94;66.53;76204.84;5055118;28;20116;-81
2022/06/09 08:30:51;;;;;;;14.63;6.88;;;;;;;-144.94;66.12;76173.97;5054920;28;20029;-82
2022/06/09 08:33:17;;;;;;;14.45;7.07;;;;;;;-144.94;65.56;76143.09;5055304;28;20434;-82
2022/06/09 08:35:44;;;;;;;;;;;;;;;-144.94;64.45;76110.16;5055181;28;20104;-83
2022/06/09 08:38:10;;;;;;;12.63;7.15;;;;;;;-144.94;63.93;76081.34;5055617;28;19913;-82
2022/06/09 08:41:03;;;;;;;13.00;7.07;;;;;;;-144.94;62.97;76081.34;5055223;28;20578;-82
2022/06/09 08:43:34;;;;;;;16.10;7.00;;;;;;;-144.94;61.98;76056.63;5055374;28;20025;-89
2022/06/09 08:46:25;;;;;;;12.70;6.85;;;;;;;-144.94;60.57;76075.16;5055809;28;20029;-84
2022/06/09 08:48:54;;;;;;;12.18;7.00;;;;;;;-144.94;61.35;76091.63;5040753;28;20069;-86
2022/06/09 08:51:40;;;;;;;13.73;7.35;;;;;;;-144.94;61.39;76073.09;5055538;28;20356;-86
2022/06/09 08:54:18;;;;;;;11.30;6.75;;;;;;;-144.94;61.53;76048.41;5054562;28;20033;-86
2022/06/09 08:56:45;;;;;;;12.98;6.65;;;;;;;-144.94;61.11;76029.88;5054534;28;20111;-85
2022/06/09 08:59:15;;;;;;;11.23;6.43;;;;;;;-144.94;60.71;76027.81;5054827;28;20068;-85
2022/06/09 09:01:48;;;;;;;13.02;6.28;;;;;;;-144.94;60.26;75992.81;5054345;28;20036;-85
2022/06/09 09:04:25;;;;;;;14.27;7.13;;;;;;;-144.94;58.96;75966.06;5036381;28;20468;-85
2022/06/09 09:07:15;;;;;;;12.27;6.13;;;;;;;-144.94;58.31;75949.59;5054883;28;20117;-85
2022/06/09 09:09:41;;;;;;;10.90;5.70;;;;;;;-144.94;59.37;75961.94;5054673;28;20032;-85
2022/06/09 09:12:16;;;;;;;;;;;;;;;-144.94;57.75;75941.34;5055124;28;20029;-84
2022/06/09 09:14:54;;;;;;;10.25;4.95;;;;;;;-144.94;57.30;75933.13;5053742;28;19992;-83
2022/06/09 09:17:49;;;;;;;11.60;5.15;;;;;;;-144.94;57.18;75941.34;5054056;28;20116;-84
2022/06/09 09:20:30;;;;;;;9.02;5.07;;;;;;;-144.94;56.52;75912.53;5052895;28;20451;-84
2022/06/09 09:23:11;;;;;;;8.48;5.18;;;;;;;-144.94;56.06;75904.31;5053639;28;20036;-84
2022/06/09 09:25:55;;;;;;;9.80;5.05;;;;;;;-144.94;57.36;75910.47;5054756;28;20412;-84
2022/06/09 09:28:30;;;;;;;8.85;4.70;;;;;;;-144.94;56.24;75910.47;5054805;28;20487;-84
2022/06/09 09:31:23;;;;;;;11.95;5.45;;;;;;;-144.94;57.39;75935.19;5054654;28;20111;-84
2022/06/09 09:33:49;;;;;;;9.98;4.88;;;;;;;-144.94;56.04;75912.53;5054169;28;20025;-81
2022/06/09 09:36:24;;;;;;;10.73;5.35;;;;;;;-144.94;56.55;75920.78;5054367;28;20029;-85
2022/06/09 09:39:01;;;;;;;9.90;5.85;;;;;;;-144.94;56.56;75933.13;5071532;28;20048;-87
2022/06/09 09:41:38;;;;;;;9.32;6.10;;;;;;;-144.94;56.90;75926.94;5052835;28;20060;-90
2022/06/09 09:44:21;;;;;;;13.98;6.72;;;;;;;-144.94;56.22;75912.53;5066821;28;20064;-90
2022/06/09 09:46:58;;;;;;;11.25;5.57;;;;;;;-144.94;55.89;75898.13;5063082;28;20150;-90
2022/06/09 09:49:34;;;;;;;9.27;5.13;;;;;;;-144.94;56.18;75912.53;5059819;28;20025;-91
2022/06/09 09:52:00;;;;;;;11.40;4.50;;;;;;;-144.94;55.36;75887.84;5058684;28;20027;-92
2022/06/09 09:54:37;;;;;;;11.27;5.05;;;;;;;-144.94;55.86;75873.44;5061677;28;20044;-89
2022/06/09 09:57:15;;;;;;;9.75;5.60;;;;;;;-144.94;55.10;75887.84;5060271;28;20033;-92
2022/06/09 09:59:46;;;;;;;8.07;4.13;;;;;;;-144.94;54.58;75883.72;5043993;28;20100;-91
2022/06/09 10:08:36;;;;;;;8.02;2.50;;;;;;;-144.94;53.73;75879.59;5067788;28;20040;-92
2022/06/09 10:11:53;;;;;;;7.68;2.85;;;;;;;-144.94;53.33;75861.06;5044389;28;20052;-90
2022/06/09 10:13:50;;;;;;;6.75;3.40;;;;;;;-144.94;53.88;75873.44;5061904;28;20043;-92
2022/06/09 10:16:17;;;;;;;5.97;2.55;;;;;;;-144.94;52.82;75875.47;5060122;28;20033;-88
2022/06/09 10:18:44;;;;;;;5.13;2.53;;;;;;;-144.94;53.84;75904.31;5064405;28;20029;-92
2022/06/09 10:21:13;;;;;;;9.48;2.20;;;;;;;-144.94;51.94;75863.13;5044974;28;20052;-92
2022/06/09 10:24:02;;;;;;;6.93;2.20;;;;;;;-144.94;51.78;75900.19;5062417;28;20052;-86
2022/06/09 10:26:38;;;;;;;6.03;2.55;;;;;;;-144.94;52.47;75904.31;5061567;28;20043;-90
2022/06/09 10:29:08;;;;;;;5.22;2.78;;;;;;;-144.94;53.61;75920.78;5064225;28;20029;-89
2022/06/09 10:31:46;;;;;;;7.57;3.55;;;;;;;-144.94;54.16;75908.41;5064494;28;20029;-90
2022/06/09 10:34:23;;;;;;;5.72;3.03;;;;;;;-144.94;54.60;75896.06;5066519;28;20167;-90
2022/06/09 10:37:10;;;;;;;6.70;4.03;;;;;;;-144.94;54.00;75883.72;5067828;28;20028;-92
2022/06/09 10:39:39;;;;;;;6.30;3.88;;;;;;;-144.94;54.65;75914.59;5046645;28;20087;-87
2022/06/09 10:42:22;;;;;;;7.93;4.20;;;;;;;-144.94;54.29;75953.72;5062101;28;20048;-90
2022/06/09 10:44:59;;;;;;;6.93;3.47;;;;;;;-144.94;54.83;75976.34;5060529;28;20052;-92
2022/06/09 10:56:47;;;;;;;3.15;1.50;;;;;;;-144.94;52.54;75929.00;5069896;28;20083;-90
2022/06/09 10:59:24;;;;;;;4.50;1.65;;;;;;;-144.94;51.30;75929.00;5066989;28;20143;-90
2022/06/09 11:01:50;;;;;;;3.85;1.60;;;;;;;-144.94;52.03;75904.31;5066001;28;20483;-92
2022/06/09 11:04:17;;;;;;;2.92;1.20;;;;;;;-144.94;51.33;75908.41;5065068;28;20148;-90
2022/06/09 11:07:14;;;;;;;3.42;1.13;;;;;;;-144.94;50.25;75885.78;5056729;28;20382;-82
2022/06/09 11:09:54;;;;;;;3.00;1.30;;;;;;;-144.94;49.79;75877.53;5052810;28;20036;-80
2022/06/09 11:12:33;;;;;;;3.35;1.20;;;;;;;-144.94;48.70;75861.06;5052634;28;20047;-82
2022/06/09 11:15:09;;;;;;;2.75;0.80;;;;;;;-144.94;48.60;75832.25;5052500;28;20061;-82
2022/06/09 11:17:59;;;;;;;3.03;0.90;;;;;;;-144.94;47.46;75832.25;5052655;28;20033;-83
2022/06/09 11:20:52;;;;;;;2.20;0.98;;;;;;;-144.94;46.83;75805.50;5052637;28;20033;-83
2022/06/09 11:23:54;;;;;;;2.85;0.90;;;;;;;-144.94;46.65;75791.09;5052806;28;20079;-83
2022/06/09 11:26:50;;;;;;;6.80;2.60;;;;;;;-144.94;47.50;75770.50;5053090;28;20083;-86
2022/06/09 11:29:38;;;;;;;5.07;1.55;;;;;;;-144.94;46.92;75805.50;5053238;28;20036;-81
2022/06/09 11:32:10;;;;;;;5.13;1.60;;;;;;;-144.94;47.73;75758.16;5052491;28;20494;-79
2022/06/09 11:34:58;;;;;;;4.80;2.05;;;;;;;-144.94;48.83;75754.03;5052375;28;20118;-79
2022/06/09 11:38:02;;;;;;;5.25;2.63;;;;;;;-144.94;49.04;75770.50;5052535;28;20021;-79
2022/06/09 11:40:34;;;;;;;4.15;2.28;;;;;;;-144.94;50.10;75786.97;5005327;28;20037;-79
2022/06/09 11:43:18;;;;;;;5.10;3.33;;;;;;;-144.94;50.21;75832.25;5055875;28;20025;-78
2022/06/09 11:45:49;;;;;;;5.40;3.05;;;;;;;-144.94;51.07;75885.78;5056034;28;20448;-79
2022/06/09 11:48:35;;;;;;;4.45;2.90;;;;;;;-144.94;50.60;75821.97;5055892;28;20052;-79
2022/06/09 11:51:02;;;;;;;4.88;2.67;;;;;;;-144.94;50.45;75815.78;5055779;28;20535;-79
2022/06/09 11:53:35;;;;;;;4.63;2.63;;;;;;;-144.94;50.21;75786.97;5037941;28;20033;-79
2022/06/09 11:56:34;;;;;;;4.88;2.08;;;;;;;-144.94;49.35;75778.75;5055556;28;20113;-79
2022/06/09 11:59:12;;;;;;;5.15;1.70;;;;;;;-144.94;48.06;75770.50;5055757;28;20033;-79
2022/06/09 12:01:37;;;;;;;4.78;1.85;;;;;;;-144.94;47.62;75801.38;5055388;28;20036;-80